createdAt,value
2023-01-23T00:00:04.755Z,88.07
2023-01-23T00:03:01.571Z,80.18
2023-01-23T00:05:59.094Z,74.78
2023-01-23T00:08:48.582Z,72.30
2023-01-23T00:11:37.885Z,79.53
2023-01-23T00:14:28.548Z,75.88
2023-01-23T00:17:17.987Z,77.97
2023-01-23T00:20:08.683Z,78.88
2023-01-23T00:22:57.887Z,94.60
2023-01-23T00:25:47.083Z,58.72
2023-01-23T00:28:36.811Z,58.13
2023-01-23T00:31:31.629Z,56.55
2023-01-23T00:34:21.100Z,53.83
2023-01-23T00:37:10.724Z,43.45
2023-01-23T00:40:00.051Z,50.35
2023-01-23T00:42:49.326Z,58.90
2023-01-23T00:45:39.548Z,61.28
2023-01-23T00:48:30.220Z,69.05
2023-01-23T00:51:20.102Z,74.15
2023-01-23T00:54:09.310Z,71.68
2023-01-23T00:56:58.667Z,74.10
2023-01-23T00:59:47.894Z,72.68
2023-01-23T01:02:37.220Z,69.28
2023-01-23T01:05:28.759Z,68.78
2023-01-23T01:08:18.248Z,65.80
2023-01-23T01:11:08.248Z,63.03
2023-01-23T01:13:58.086Z,59.50
2023-01-23T01:16:47.372Z,58.13
2023-01-23T01:19:36.749Z,58.10
2023-01-23T01:22:27.579Z,56.85
2023-01-23T01:25:17.933Z,55.95
2023-01-23T01:28:09.384Z,56.33
2023-01-23T01:30:59.413Z,54.10
2023-01-23T01:33:50.626Z,63.65
2023-01-23T01:36:41.285Z,84.57
2023-01-23T01:39:31.919Z,73.20
2023-01-23T01:42:21.187Z,73.25
2023-01-23T01:46:05.135Z,78.45
2023-01-23T01:49:07.397Z,77.13
2023-01-23T01:52:00.768Z,80.15
2023-01-23T01:54:55.389Z,87.82
2023-01-23T01:57:48.983Z,93.68
2023-01-23T02:00:38.378Z,76.60
2023-01-23T02:03:28.239Z,75.55
2023-01-23T02:06:17.766Z,70.13
2023-01-23T02:09:17.492Z,71.35
2023-01-23T02:12:09.961Z,74.07
2023-01-23T02:14:59.645Z,80.97
2023-01-23T02:17:51.768Z,83.45
2023-01-23T02:20:42.318Z,80.25
2023-01-23T02:23:44.457Z,74.25
2023-01-23T02:26:44.233Z,67.45
2023-01-23T02:29:45.192Z,90.25
2023-01-23T02:32:35.906Z,77.70
2023-01-23T02:35:29.242Z,72.45
2023-01-23T02:38:31.541Z,142.57
2023-01-23T02:41:27.086Z,90.88
2023-01-23T02:44:26.357Z,79.93
2023-01-23T02:47:19.101Z,75.70
2023-01-23T02:50:09.485Z,66.35
2023-01-23T02:52:59.230Z,62.08
2023-01-23T02:55:48.488Z,64.00
2023-01-23T02:58:55.410Z,64.80
2023-01-23T03:01:46.201Z,62.17
2023-01-23T03:04:35.706Z,72.80
2023-01-23T03:07:24.931Z,66.22
2023-01-23T03:10:14.607Z,71.07
2023-01-23T03:13:09.340Z,63.90
2023-01-23T03:15:58.696Z,62.85
2023-01-23T03:18:54.702Z,57.42
2023-01-23T03:21:45.119Z,49.13
2023-01-23T03:24:36.408Z,48.22
2023-01-23T03:27:25.899Z,49.75
2023-01-23T03:30:20.512Z,51.15
2023-01-23T03:33:11.169Z,46.67
2023-01-23T03:36:02.437Z,47.35
2023-01-23T03:39:09.026Z,44.65
2023-01-23T03:41:58.676Z,45.35
2023-01-23T03:44:53.207Z,46.40
2023-01-23T03:47:46.399Z,46.25
2023-01-23T03:50:35.585Z,47.10
2023-01-23T03:53:26.434Z,49.15
2023-01-23T03:56:15.944Z,46.42
2023-01-23T03:59:05.900Z,54.22
2023-01-23T04:01:58.166Z,50.70
2023-01-23T04:04:47.622Z,55.35
2023-01-23T04:07:37.006Z,59.28
2023-01-23T04:10:27.844Z,60.88
2023-01-23T04:13:22.910Z,59.58
2023-01-23T04:16:12.423Z,71.30
2023-01-23T04:19:01.713Z,69.43
2023-01-23T04:21:51.668Z,72.20
2023-01-23T04:24:41.788Z,72.25
2023-01-23T04:27:33.248Z,71.88
2023-01-23T04:30:23.813Z,71.85
2023-01-23T04:33:13.880Z,70.78
2023-01-23T04:36:07.496Z,76.18
2023-01-23T04:38:57.308Z,74.50
2023-01-23T04:41:48.983Z,79.20
2023-01-23T04:44:59.842Z,72.22
2023-01-23T04:51:01.180Z,60.63
2023-01-23T04:53:50.829Z,68.22
2023-01-23T04:56:40.100Z,69.72
2023-01-23T04:59:32.150Z,71.82
2023-01-23T05:02:22.946Z,72.90
2023-01-23T05:05:12.822Z,76.82
2023-01-23T05:08:02.427Z,69.00
2023-01-23T05:10:52.474Z,73.35
2023-01-23T05:13:42.726Z,75.55
2023-01-23T05:16:31.998Z,78.85
2023-01-23T05:19:45.454Z,75.10
2023-01-23T05:22:34.795Z,76.50
2023-01-23T05:25:27.723Z,72.82
2023-01-23T05:28:18.795Z,73.50
2023-01-23T05:31:13.485Z,76.80
2023-01-23T05:34:09.935Z,73.50
2023-01-23T05:37:03.764Z,74.10
2023-01-23T05:39:56.711Z,75.05
2023-01-23T05:42:48.171Z,71.30
2023-01-23T05:46:00.673Z,68.78
2023-01-23T05:49:10.395Z,70.90
2023-01-23T05:51:59.959Z,69.78
2023-01-23T05:54:51.180Z,67.78
2023-01-23T05:57:41.344Z,64.90
2023-01-23T06:00:49.243Z,62.90
2023-01-23T06:04:04.170Z,62.17
2023-01-23T06:07:15.925Z,57.15
2023-01-23T06:10:09.918Z,57.22
2023-01-23T06:12:59.579Z,58.13
2023-01-23T06:15:48.971Z,58.53
2023-01-23T06:18:40.286Z,64.53
2023-01-23T06:21:30.447Z,62.83
2023-01-23T06:24:20.854Z,55.40
2023-01-23T06:27:12.670Z,59.35
2023-01-23T06:30:02.036Z,61.55
2023-01-23T06:32:51.441Z,55.40
2023-01-23T06:35:46.773Z,58.92
2023-01-23T06:38:36.763Z,59.13
2023-01-23T06:41:29.498Z,54.78
2023-01-23T06:44:25.402Z,50.15
2023-01-23T06:47:16.987Z,48.72
2023-01-23T06:50:12.127Z,50.30
2023-01-23T06:53:01.892Z,46.72
2023-01-23T06:55:51.472Z,47.33
2023-01-23T06:58:41.095Z,45.85
2023-01-23T07:01:41.282Z,44.35
2023-01-23T07:04:42.279Z,36.25
2023-01-23T07:07:33.739Z,35.72
2023-01-23T07:10:24.076Z,41.00
2023-01-23T07:13:14.055Z,39.28
2023-01-23T07:16:03.481Z,40.10
2023-01-23T07:18:54.312Z,41.40
2023-01-23T07:21:43.687Z,43.78
2023-01-23T07:24:33.178Z,42.58
2023-01-23T07:27:22.737Z,45.22
2023-01-23T07:30:13.564Z,47.80
2023-01-23T07:33:03.083Z,43.55
2023-01-23T07:35:53.744Z,44.88
2023-01-23T07:38:43.064Z,45.10
2023-01-23T07:41:32.334Z,49.13
2023-01-23T07:44:25.228Z,45.30
2023-01-23T07:47:14.381Z,49.40
2023-01-23T07:50:03.975Z,47.90
2023-01-23T07:52:56.836Z,45.65
2023-01-23T07:55:46.257Z,46.35
2023-01-23T07:58:35.677Z,46.00
2023-01-23T08:01:24.892Z,47.97
2023-01-23T08:04:14.264Z,48.85
2023-01-23T08:07:03.589Z,53.05
2023-01-23T08:09:54.308Z,53.50
2023-01-23T08:12:43.563Z,44.30
2023-01-23T08:15:32.770Z,44.65
2023-01-23T08:18:22.200Z,53.42
2023-01-23T08:21:11.975Z,43.42
2023-01-23T08:24:04.967Z,42.30
2023-01-23T08:29:45.052Z,34.83
2023-01-23T08:32:36.408Z,31.42
2023-01-23T08:35:25.602Z,34.28
2023-01-23T08:38:14.876Z,36.08
2023-01-23T08:41:05.230Z,38.20
2023-01-23T08:43:57.615Z,37.67
2023-01-23T08:46:47.525Z,43.72
2023-01-23T08:49:36.855Z,42.10
2023-01-23T08:52:26.176Z,46.08
2023-01-23T08:55:15.595Z,47.47
2023-01-23T08:58:05.023Z,51.55
2023-01-23T09:00:55.842Z,55.70
2023-01-23T09:03:45.613Z,50.63
2023-01-23T09:06:35.015Z,55.50
2023-01-23T09:09:24.246Z,54.97
2023-01-23T09:12:13.547Z,52.78
2023-01-23T09:15:02.830Z,49.55
2023-01-23T09:17:53.478Z,50.45
2023-01-23T09:20:42.755Z,54.65
2023-01-23T09:23:31.914Z,53.90
2023-01-23T09:26:21.194Z,62.15
2023-01-23T09:29:10.591Z,66.13
2023-01-23T09:31:59.838Z,67.55
2023-01-23T09:34:50.525Z,67.00
2023-01-23T09:37:59.926Z,68.03
2023-01-23T09:40:52.925Z,63.97
2023-01-23T09:43:51.053Z,61.28
2023-01-23T09:46:47.785Z,62.83
2023-01-23T09:49:48.405Z,63.03
2023-01-23T09:52:46.002Z,65.03
2023-01-23T09:55:44.159Z,62.05
2023-01-23T09:58:40.620Z,63.25
2023-01-23T10:01:32.869Z,63.80
2023-01-23T10:04:23.569Z,66.53
2023-01-23T10:08:07.007Z,65.80
2023-01-23T10:11:00.478Z,60.50
2023-01-23T10:14:03.757Z,66.53
2023-01-23T10:17:05.852Z,68.88
2023-01-23T10:20:21.564Z,67.70
2023-01-23T10:23:27.740Z,69.38
2023-01-23T10:26:23.382Z,70.68
2023-01-23T10:29:22.064Z,79.53
2023-01-23T10:32:25.976Z,78.50
2023-01-23T10:35:21.464Z,83.80
2023-01-23T10:38:28.027Z,80.68
2023-01-23T10:41:21.795Z,78.13
2023-01-23T10:44:17.722Z,82.93
2023-01-23T10:47:19.262Z,79.75
2023-01-23T10:50:09.282Z,78.63
2023-01-23T10:53:09.183Z,78.72
2023-01-23T10:56:02.520Z,78.70
2023-01-23T10:58:56.354Z,79.15
2023-01-23T11:02:03.864Z,80.03
2023-01-23T11:04:53.477Z,83.80
2023-01-23T11:07:42.879Z,83.03
2023-01-23T11:10:32.367Z,79.25
2023-01-23T11:13:31.240Z,77.38
2023-01-23T11:16:23.534Z,72.78
2023-01-23T11:19:24.085Z,78.35
2023-01-23T11:22:30.105Z,60.65
2023-01-23T11:25:31.680Z,62.35
2023-01-23T11:28:27.071Z,66.47
2023-01-23T11:31:22.555Z,71.18
2023-01-23T11:34:16.052Z,74.50
2023-01-23T11:37:14.296Z,73.53
2023-01-23T11:40:08.687Z,68.72
2023-01-23T11:42:58.098Z,66.55
2023-01-23T11:46:11.079Z,64.93
2023-01-23T11:49:20.049Z,63.03
2023-01-23T11:52:29.740Z,61.58
2023-01-23T11:55:53.435Z,60.05
2023-01-23T12:02:14.296Z,52.95
2023-01-23T12:06:18.882Z,57.03
2023-01-23T12:09:15.956Z,57.95
2023-01-23T12:12:16.422Z,59.55
2023-01-23T12:15:16.770Z,59.83
2023-01-23T12:18:24.106Z,61.25
2023-01-23T12:21:20.041Z,73.68
2023-01-23T12:24:22.463Z,55.67
2023-01-23T12:27:23.260Z,61.38
2023-01-23T12:30:50.390Z,55.83
2023-01-23T12:33:59.301Z,84.15
2023-01-23T12:37:19.273Z,77.03
2023-01-23T12:40:24.148Z,91.28
2023-01-23T12:43:19.970Z,101.93
2023-01-23T12:46:15.207Z,100.88
2023-01-23T12:49:26.415Z,94.10
2023-01-23T12:52:23.669Z,88.47
2023-01-23T12:55:22.705Z,91.28
2023-01-23T12:58:18.405Z,86.05
2023-01-23T13:01:21.837Z,84.60
2023-01-23T13:04:24.942Z,91.07
2023-01-23T13:07:40.100Z,87.00
2023-01-23T13:11:18.098Z,78.25
2023-01-23T13:14:19.241Z,96.03
2023-01-23T13:17:36.595Z,90.50
2023-01-23T13:20:48.493Z,88.45
2023-01-23T13:23:38.023Z,76.07
2023-01-23T13:26:32.670Z,75.78
2023-01-23T13:29:50.377Z,62.08
2023-01-23T13:32:39.572Z,45.78
2023-01-23T13:35:59.330Z,42.33
2023-01-23T13:39:23.220Z,45.28
2023-01-23T13:42:47.153Z,33.03
2023-01-23T13:45:37.753Z,41.85
2023-01-23T14:21:56.919Z,54.83
2023-01-23T14:24:50.034Z,39.70
2023-01-23T14:30:56.191Z,37.80
2023-01-23T14:33:46.532Z,46.60
2023-01-23T14:36:39.040Z,77.90
2023-01-23T14:39:31.545Z,100.35
2023-01-23T14:42:27.477Z,112.68
2023-01-23T14:45:17.090Z,114.05
2023-01-23T14:48:15.021Z,107.50
2023-01-23T14:51:11.336Z,105.57
2023-01-23T14:54:03.162Z,102.00
2023-01-23T14:56:54.250Z,113.97
2023-01-23T14:59:45.713Z,96.40
2023-01-23T15:02:36.604Z,103.22
2023-01-23T15:05:29.374Z,95.43
2023-01-23T15:08:23.932Z,97.18
2023-01-23T15:11:13.492Z,92.18
2023-01-23T15:14:03.739Z,91.95
2023-01-23T15:16:59.758Z,92.38
2023-01-23T15:19:55.425Z,96.68
2023-01-23T15:22:46.128Z,100.00
2023-01-23T15:25:35.495Z,101.70
2023-01-23T15:28:33.115Z,87.97
2023-01-23T15:31:29.805Z,63.63
2023-01-23T15:34:27.018Z,74.05
2023-01-23T15:37:25.656Z,75.65
2023-01-23T15:40:26.109Z,67.80
2023-01-23T15:43:20.569Z,67.43
2023-01-23T15:46:12.078Z,64.82
2023-01-23T15:49:01.380Z,71.35
2023-01-23T15:51:51.098Z,70.70
2023-01-23T15:54:40.553Z,74.30
2023-01-23T15:57:31.301Z,69.22
2023-01-23T16:00:25.791Z,74.80
2023-01-23T16:03:15.286Z,74.38
2023-01-23T16:06:06.296Z,79.60
2023-01-23T16:09:05.120Z,79.90
2023-01-23T16:11:55.114Z,72.50
2023-01-23T16:14:46.413Z,89.05
2023-01-23T16:17:36.929Z,92.93
2023-01-23T16:20:30.936Z,94.63
2023-01-23T16:23:24.869Z,104.53
2023-01-23T16:26:21.092Z,92.03
2023-01-23T16:29:26.323Z,79.88
2023-01-23T16:32:17.543Z,52.60
2023-01-23T16:35:08.496Z,56.75
2023-01-23T16:37:57.896Z,57.03
2023-01-23T16:40:47.294Z,76.30
2023-01-23T16:43:36.893Z,80.40
2023-01-23T16:46:26.281Z,81.30
2023-01-23T16:49:17.184Z,82.00
2023-01-23T16:52:06.829Z,85.07
2023-01-23T16:54:56.607Z,83.15
2023-01-23T16:57:46.176Z,84.03
2023-01-23T17:00:36.705Z,78.57
2023-01-23T17:03:31.455Z,78.97
2023-01-23T17:06:22.089Z,71.47
2023-01-23T17:09:12.944Z,75.03
2023-01-23T17:12:02.133Z,66.88
2023-01-23T17:14:53.076Z,73.82
2023-01-23T17:17:42.223Z,73.00
2023-01-23T17:20:31.441Z,95.53
2023-01-23T17:23:22.160Z,100.78
2023-01-23T17:26:18.567Z,94.65
2023-01-23T17:29:07.755Z,109.05
2023-01-23T17:31:57.751Z,97.30
2023-01-23T17:34:50.301Z,95.80
2023-01-23T17:37:40.583Z,96.93
2023-01-23T17:40:32.037Z,94.20
2023-01-23T17:43:23.446Z,100.60
2023-01-23T17:46:26.970Z,88.70
2023-01-23T17:49:30.565Z,95.20
2023-01-23T17:52:21.818Z,90.00
2023-01-23T17:55:15.886Z,78.95
2023-01-23T17:58:06.578Z,83.75
2023-01-23T18:00:56.228Z,86.57
2023-01-23T18:03:45.657Z,86.22
2023-01-23T18:06:34.966Z,87.60
2023-01-23T18:09:24.481Z,77.03
2023-01-23T18:12:19.284Z,72.97
2023-01-23T18:15:16.764Z,79.10
2023-01-23T18:18:22.460Z,85.60
2023-01-23T18:21:18.023Z,85.35
2023-01-23T18:24:11.932Z,82.60
2023-01-23T18:27:11.834Z,83.70
2023-01-23T18:30:21.083Z,78.57
2023-01-23T18:33:29.674Z,68.90
2023-01-23T18:36:37.283Z,86.05
2023-01-23T18:40:05.647Z,72.07
2023-01-23T18:43:02.948Z,73.25
2023-01-23T18:45:57.644Z,79.13
2023-01-23T18:48:49.647Z,79.90
2023-01-23T18:51:47.311Z,85.70
2023-01-23T18:54:45.426Z,83.25
2023-01-23T18:57:55.542Z,81.60
2023-01-23T19:00:51.151Z,81.72
2023-01-23T19:03:46.676Z,85.25
2023-01-23T19:06:37.377Z,85.38
2023-01-23T19:09:28.842Z,86.20
2023-01-23T19:12:28.327Z,95.60
2023-01-23T19:15:29.088Z,88.07
2023-01-23T19:18:48.497Z,88.20
2023-01-23T19:21:38.159Z,94.85
2023-01-23T19:24:28.469Z,86.68
2023-01-23T19:27:24.845Z,58.40
2023-01-23T19:30:15.833Z,51.20
2023-01-23T19:33:04.995Z,53.30
2023-01-23T19:35:56.721Z,58.63
2023-01-23T19:38:46.069Z,52.03
2023-01-23T19:41:43.091Z,63.25
2023-01-23T19:44:33.297Z,57.63
2023-01-23T19:47:22.594Z,68.40
2023-01-23T19:50:16.748Z,52.08
2023-01-23T19:53:07.365Z,72.28
2023-01-23T19:56:01.392Z,77.30
2023-01-23T19:58:51.267Z,80.38
2023-01-23T20:01:43.680Z,72.30
2023-01-23T20:04:33.035Z,56.08
2023-01-23T20:07:22.676Z,50.42
2023-01-23T20:10:14.288Z,74.45
2023-01-23T20:13:03.452Z,68.43
2023-01-23T20:15:52.664Z,62.65
2023-01-23T20:18:42.550Z,70.10
2023-01-23T20:21:31.999Z,68.07
2023-01-23T20:24:21.357Z,57.13
2023-01-23T20:27:12.040Z,51.83
2023-01-23T20:30:02.613Z,48.40
2023-01-23T20:32:52.049Z,44.53
2023-01-23T20:35:41.296Z,44.65
2023-01-23T20:38:30.742Z,47.67
2023-01-23T20:41:22.289Z,35.90
2023-01-23T20:44:13.004Z,42.17
2023-01-23T20:47:02.252Z,46.65
2023-01-23T20:49:51.531Z,43.92
2023-01-23T20:52:57.904Z,42.63
2023-01-23T20:55:47.113Z,36.85
2023-01-23T20:58:56.207Z,46.95
2023-01-23T21:02:05.347Z,43.10
2023-01-23T21:04:54.837Z,47.20
2023-01-23T21:07:44.044Z,42.58
2023-01-23T21:10:33.757Z,41.72
2023-01-23T21:13:23.274Z,54.72
2023-01-23T21:16:15.936Z,50.75
2023-01-23T21:19:06.714Z,58.40
2023-01-23T21:21:55.931Z,49.70
2023-01-23T21:24:45.218Z,56.90
2023-01-23T21:27:34.456Z,56.65
2023-01-23T21:30:23.734Z,56.55
2023-01-23T21:33:12.983Z,57.53
2023-01-23T21:36:03.657Z,60.50
2023-01-23T21:39:14.372Z,51.40
2023-01-23T21:42:03.634Z,56.53
2023-01-23T21:44:55.202Z,53.40
2023-01-23T21:47:44.559Z,51.50
2023-01-23T21:50:33.944Z,54.90
2023-01-23T21:53:24.964Z,51.10
2023-01-23T21:56:16.343Z,57.50
2023-01-23T21:59:05.953Z,51.78
2023-01-23T22:01:54.407Z,55.58
2023-01-23T22:04:43.669Z,53.47
2023-01-23T22:07:33.031Z,51.10
2023-01-23T22:10:23.657Z,48.67
2023-01-23T22:13:14.222Z,50.35
2023-01-23T22:16:04.616Z,44.58
2023-01-23T22:18:53.993Z,43.45
2023-01-23T22:21:43.864Z,43.05
2023-01-23T22:24:33.145Z,42.08
2023-01-23T22:27:24.223Z,48.15
2023-01-23T22:30:14.820Z,52.38
2023-01-23T22:33:04.020Z,52.60
2023-01-23T22:35:53.287Z,46.20
2023-01-23T22:38:42.565Z,49.55
2023-01-23T22:41:31.794Z,38.97
2023-01-23T22:44:22.479Z,61.38
2023-01-23T22:47:11.979Z,42.17
2023-01-23T22:50:01.355Z,43.95
2023-01-23T22:52:50.718Z,43.70
2023-01-23T22:55:39.909Z,45.83
2023-01-23T22:58:30.262Z,39.50
2023-01-23T23:01:25.388Z,43.90
2023-01-23T23:04:14.600Z,44.83
2023-01-23T23:07:03.955Z,45.92
2023-01-23T23:09:53.290Z,51.95
2023-01-23T23:12:42.544Z,48.92
2023-01-23T23:15:31.805Z,43.45
2023-01-23T23:18:22.497Z,42.25
2023-01-23T23:21:15.005Z,45.05
2023-01-23T23:24:07.011Z,42.72
2023-01-23T23:26:56.439Z,41.60
2023-01-23T23:29:45.699Z,44.22
2023-01-23T23:32:35.047Z,45.17
2023-01-23T23:35:25.653Z,42.65
2023-01-23T23:38:15.635Z,43.00
2023-01-23T23:41:08.073Z,43.85
2023-01-23T23:43:57.392Z,39.42
2023-01-23T23:46:46.687Z,32.10
2023-01-23T23:49:35.941Z,39.05
2023-01-23T23:52:26.680Z,39.47
2023-01-23T23:55:16.352Z,37.83
2023-01-23T23:58:05.695Z,37.63
